Woodgate — D5BX7 — position and weather

sailwx.info

Track history (hours):
 
Tides and Currents Weather Stations Pressure Air Temp Water Temp Dewpoint Dewpoint Depression Visibility Wind Speed Wind Dir Waves Ship Positions

Woodgate

Last reported at 2015-Mar-22 06:28 UTC. Time now 2015-Mar-27 11:58 UTC.
Position N 36°10' E 026°30'.

Length 169 m; draft 8.1 m.

Type: Cargo ship. MMSI: 636015627.

Date/timePositionNaut miles runAvg speedWind from/ knotsBaromVisibWave heightAir tempDewpointWater temp
2015-Mar-22 06:28N 36°10' E 026°30'1112.2
2015-Mar-22 05:33N 36°10' E 026°17'1212.1
2015-Mar-22 04:33N 36°10' E 026°01'1211.6
2015-Mar-22 03:33N 36°10' E 025°47'1211.8
2015-Mar-22 02:33N 36°10' E 025°32'1211.7
2015-Mar-22 01:33N 36°10' E 025°18'1212.0
2015-Mar-22 00:33N 36°10' E 025°03'1212.3
2015-Mar-21 23:32N 36°10' E 024°48'49611.4
2015-Mar-20 04:08N 36°25' E 014°32'712.1
2015-Mar-20 03:33N 36°25' E 014°23'1411.8
2015-Mar-20 02:24N 36°26' E 014°06'1211.6
2015-Mar-20 01:20N 36°29' E 013°51'10511.8
2015-Mar-19 16:27N 37°08' E 011°51'13011.4
2015-Mar-19 05:04N 37°36' E 009°11'11710.1
2015-Mar-18 17:33N 37°27' E 006°44'10310.3
2015-Mar-18 07:32N 37°17' E 004°35'1010.0
2015-Mar-18 06:33N 37°16' E 004°23'1110.0
2015-Mar-18 05:29N 37°15' E 004°09'1010.6
2015-Mar-18 04:33N 37°14' E 003°57'13810.5
2015-Mar-17 15:22N 36°51' E 001°06'30811.9
2015-Mar-16 13:33N 36°04' W 005°13'9 8.7
2015-Mar-16 12:33N 36°08' W 005°22'0 0.1
2015-Mar-16 11:33N 36°08' W 005°22'0 0.1
2015-Mar-16 10:31N 36°08' W 005°22'0 0.0
2015-Mar-16 09:28N 36°08' W 005°22'0 0.0
2015-Mar-16 08:16N 36°08' W 005°22'0 0.0
2015-Mar-16 07:32N 36°08' W 005°22'3 2.7
2015-Mar-16 06:33N 36°06' W 005°22'8 8.3
2015-Mar-16 05:33N 35°58' W 005°27'9312.4
2015-Mar-15 22:04N 35°54' W 007°21'712.0
2015-Mar-15 21:27N 35°54' W 007°30'8211.3
2015-Mar-15 14:12N 35°35' W 009°09'710.9
2015-Mar-15 13:32N 35°32' W 009°17'4610.8
2015-Mar-15 09:15N 35°17' W 010°11'810.7
2015-Mar-15 08:31N 35°15' W 010°20'2410.2
2015-Mar-15 06:12N 35°07' W 010°47'3710.1
2015-Mar-15 02:31N 34°55' W 011°30'5310.0
2015-Mar-14 21:13N 34°37' W 012°31'7 9.9
2015-Mar-14 20:32N 34°35' W 012°39'1010.1
2015-Mar-14 19:33N 34°32' W 012°50'1210.0
2015-Mar-14 18:24N 34°28' W 013°03'810.0
2015-Mar-14 17:33N 34°25' W 013°13'13 9.8
2015-Mar-14 16:17N 34°21' W 013°27'7 9.8
2015-Mar-14 15:33N 34°19' W 013°35'  
Track history (hours):
 
Tides and Currents Weather Stations Pressure Air Temp Water Temp Dewpoint Dewpoint Depression Visibility Wind Speed Wind Dir Waves Ship Positions

Woodgate

Last reported at 2015-Mar-22 06:28 UTC. Time now 2015-Mar-27 11:58 UTC.
Position N 36°10' E 026°30'.

Length 169 m; draft 8.1 m.

Type: Cargo ship. MMSI: 636015627.

Date/timePositionNaut miles runAvg speedWind from/ knotsBaromVisibWave heightAir tempDewpointWater temp
2015-Mar-22 06:28N 36°10' E 026°30'1112.2
2015-Mar-22 05:33N 36°10' E 026°17'1212.1
2015-Mar-22 04:33N 36°10' E 026°01'1211.6
2015-Mar-22 03:33N 36°10' E 025°47'1211.8
2015-Mar-22 02:33N 36°10' E 025°32'1211.7
2015-Mar-22 01:33N 36°10' E 025°18'1212.0
2015-Mar-22 00:33N 36°10' E 025°03'1212.3
2015-Mar-21 23:32N 36°10' E 024°48'49611.4
2015-Mar-20 04:08N 36°25' E 014°32'712.1
2015-Mar-20 03:33N 36°25' E 014°23'1411.8
2015-Mar-20 02:24N 36°26' E 014°06'1211.6
2015-Mar-20 01:20N 36°29' E 013°51'10511.8
2015-Mar-19 16:27N 37°08' E 011°51'13011.4
2015-Mar-19 05:04N 37°36' E 009°11'11710.1
2015-Mar-18 17:33N 37°27' E 006°44'10310.3
2015-Mar-18 07:32N 37°17' E 004°35'1010.0
2015-Mar-18 06:33N 37°16' E 004°23'1110.0
2015-Mar-18 05:29N 37°15' E 004°09'1010.6
2015-Mar-18 04:33N 37°14' E 003°57'13810.5
2015-Mar-17 15:22N 36°51' E 001°06'30811.9
2015-Mar-16 13:33N 36°04' W 005°13'9 8.7
2015-Mar-16 12:33N 36°08' W 005°22'0 0.1
2015-Mar-16 11:33N 36°08' W 005°22'0 0.1
2015-Mar-16 10:31N 36°08' W 005°22'0 0.0
2015-Mar-16 09:28N 36°08' W 005°22'0 0.0
2015-Mar-16 08:16N 36°08' W 005°22'0 0.0
2015-Mar-16 07:32N 36°08' W 005°22'3 2.7
2015-Mar-16 06:33N 36°06' W 005°22'8 8.3
2015-Mar-16 05:33N 35°58' W 005°27'9312.4
2015-Mar-15 22:04N 35°54' W 007°21'712.0
2015-Mar-15 21:27N 35°54' W 007°30'8211.3
2015-Mar-15 14:12N 35°35' W 009°09'710.9
2015-Mar-15 13:32N 35°32' W 009°17'4610.8
2015-Mar-15 09:15N 35°17' W 010°11'810.7
2015-Mar-15 08:31N 35°15' W 010°20'2410.2
2015-Mar-15 06:12N 35°07' W 010°47'3710.1
2015-Mar-15 02:31N 34°55' W 011°30'5310.0
2015-Mar-14 21:13N 34°37' W 012°31'7 9.9
2015-Mar-14 20:32N 34°35' W 012°39'1010.1
2015-Mar-14 19:33N 34°32' W 012°50'1210.0
2015-Mar-14 18:24N 34°28' W 013°03'810.0
2015-Mar-14 17:33N 34°25' W 013°13'13 9.8
2015-Mar-14 16:17N 34°21' W 013°27'7 9.8
2015-Mar-14 15:33N 34°19' W 013°35'  

Dump ship's entire track history